Time;durP1;ratioP1;P1;durP2;ratioP2;P2;SDS_P1;SDS_P2;PMS_P1;PMS_P2;Temp;Humidity;BMP_temperature;BMP_pressure;BME280_temperature;BME280_humidity;BME280_pressure;Samples;Min_cycle;Max_cycle;Signal;HPM_P1;HPM_P2
2024/02/22 00:00:00;;;;;;;10.17;4.20;;;;;;;;;;7323405;19;20415;-46
2024/02/22 00:02:32;;;;;;;9.03;4.37;;;;;;;;;;7344685;19;20447;-44
2024/02/22 00:05:01;;;;;;;9.20;4.63;;;;;;;;;;7325525;19;20462;-43
2024/02/22 00:07:31;;;;;;;11.53;4.90;;;;;;;;;;7344413;19;20421;-42
2024/02/22 00:10:03;;;;;;;11.57;4.30;;;;;;;;;;7322944;19;21273;-44
2024/02/22 00:12:37;;;;;;;12.60;4.50;;;;;;;;;;7344513;19;20421;-42
2024/02/22 00:15:08;;;;;;;13.33;4.67;;;;;;;;;;7324031;19;20398;-43
2024/02/22 00:17:38;;;;;;;8.50;4.60;;;;;;;;;;7322097;19;20406;-43
2024/02/22 00:20:08;;;;;;;8.83;5.07;;;;;;;;;;7344902;19;20405;-44
2024/02/22 00:22:37;;;;;;;9.67;3.97;;;;;;;;;;7329065;19;20403;-42
2024/02/22 00:25:10;;;;;;;9.97;4.77;;;;;;;;;;7343774;19;20399;-43
2024/02/22 00:27:39;;;;;;;12.87;4.77;;;;;;;;;;7319801;19;20410;-46
2024/02/22 00:30:12;;;;;;;13.80;5.87;;;;;;;;;;7343897;19;20478;-43
2024/02/22 00:32:42;;;;;;;12.80;4.67;;;;;;;;;;7321335;19;20431;-42
2024/02/22 00:35:12;;;;;;;9.87;4.97;;;;;;;;;;7349833;19;20431;-41
2024/02/22 00:37:42;;;;;;;13.30;5.20;;;;;;;;;;7315438;19;20431;-39
2024/02/22 00:40:15;;;;;;;13.03;4.93;;;;;;;;;;7348427;19;20419;-40
2024/02/22 00:42:44;;;;;;;9.80;3.83;;;;;;;;;;7330957;19;20778;-39
2024/02/22 00:45:14;;;;;;;13.50;5.40;;;;;;;;;;7350853;19;20426;-40
2024/02/22 00:47:43;;;;;;;10.40;5.40;;;;;;;;;;7328537;19;20423;-38
2024/02/22 00:50:13;;;;;;;6.27;4.33;;;;;;;;;;7352705;19;20446;-40
2024/02/22 00:52:42;;;;;;;12.50;5.00;;;;;;;;;;7328947;19;20455;-41
2024/02/22 00:55:14;;;;;;;9.60;4.43;;;;;;;;;;7350390;19;20423;-39
2024/02/22 00:57:44;;;;;;;7.20;3.40;;;;;;;;;;7329022;19;20422;-39
2024/02/22 01:00:14;;;;;;;8.90;5.10;;;;;;;;;;7352727;19;20495;-40
2024/02/22 01:02:44;;;;;;;10.87;4.90;;;;;;;;;;7328777;19;20435;-39
2024/02/22 01:05:17;;;;;;;10.80;4.50;;;;;;;;;;7350162;19;20950;-39
2024/02/22 01:07:46;;;;;;;14.33;4.23;;;;;;;;;;7327207;19;20562;-39
2024/02/22 01:10:18;;;;;;;8.33;4.97;;;;;;;;;;7349606;19;20423;-41
2024/02/22 01:12:48;;;;;;;12.53;4.73;;;;;;;;;;7329963;19;21113;-39
2024/02/22 01:15:17;;;;;;;13.67;4.50;;;;;;;;;;7350913;19;20896;-39
2024/02/22 01:17:47;;;;;;;9.37;4.80;;;;;;;;;;7328567;19;20431;-40
2024/02/22 01:20:17;;;;;;;10.43;4.57;;;;;;;;;;7352036;19;20419;-39
2024/02/22 01:22:46;;;;;;;10.20;4.90;;;;;;;;;;7329038;19;20427;-39
2024/02/22 01:25:18;;;;;;;8.00;4.40;;;;;;;;;;7349712;19;20431;-42
2024/02/22 01:27:48;;;;;;;12.23;4.87;;;;;;;;;;7325449;19;20522;-40
2024/02/22 01:30:17;;;;;;;10.27;4.10;;;;;;;;;;7351402;19;20455;-39
2024/02/22 01:32:47;;;;;;;10.47;5.07;;;;;;;;;;7329711;19;20456;-40
2024/02/22 01:35:17;;;;;;;9.37;5.03;;;;;;;;;;7349692;19;20804;-40
2024/02/22 01:37:46;;;;;;;10.17;5.20;;;;;;;;;;7327618;19;20448;-41
2024/02/22 01:40:18;;;;;;;5.37;3.70;;;;;;;;;;7350431;19;20452;-40
2024/02/22 01:42:48;;;;;;;8.03;4.50;;;;;;;;;;7329625;19;20448;-41
2024/02/22 01:45:17;;;;;;;6.33;4.20;;;;;;;;;;7347211;19;20427;-39
2024/02/22 01:47:47;;;;;;;6.10;3.83;;;;;;;;;;7327458;19;20872;-39
2024/02/22 01:50:17;;;;;;;7.00;3.93;;;;;;;;;;7349338;19;20427;-39
2024/02/22 01:52:47;;;;;;;17.17;4.30;;;;;;;;;;7327090;19;20423;-40
2024/02/22 01:55:20;;;;;;;8.70;4.60;;;;;;;;;;7348748;19;20443;-39
2024/02/22 01:57:52;;;;;;;9.27;4.10;;;;;;;;;;7327060;19;20461;-39
2024/02/22 02:00:23;;;;;;;8.17;4.47;;;;;;;;;;7349790;19;20964;-39
2024/02/22 02:02:52;;;;;;;11.10;4.60;;;;;;;;;;7328427;19;20446;-39
2024/02/22 02:05:22;;;;;;;8.70;4.00;;;;;;;;;;7348728;19;20854;-39
2024/02/22 02:07:51;;;;;;;6.50;4.40;;;;;;;;;;7326995;19;20849;-39
2024/02/22 02:10:24;;;;;;;12.60;5.00;;;;;;;;;;7348646;19;20825;-38
2024/02/22 02:12:53;;;;;;;9.60;5.27;;;;;;;;;;7328482;19;20427;-39
2024/02/22 02:15:22;;;;;;;20.47;8.10;;;;;;;;;;7348773;19;20426;-39
2024/02/22 02:17:52;;;;;;;10.13;5.03;;;;;;;;;;7326881;19;20785;-40
2024/02/22 02:20:23;;;;;;;7.50;4.30;;;;;;;;;;7350212;19;20454;-38
2024/02/22 02:22:57;;;;;;;10.43;5.40;;;;;;;;;;7328013;19;20526;-39
2024/02/22 02:25:30;;;;;;;10.40;5.93;;;;;;;;;;7349251;19;20442;-40
2024/02/22 02:28:00;;;;;;;7.53;4.27;;;;;;;;;;7324553;19;20424;-39
2024/02/22 02:30:29;;;;;;;9.70;4.90;;;;;;;;;;7350416;19;20514;-39
2024/02/22 02:32:59;;;;;;;9.00;4.50;;;;;;;;;;7327934;19;20446;-40
2024/02/22 02:35:28;;;;;;;11.13;3.90;;;;;;;;;;7348443;19;20514;-39
2024/02/22 02:37:58;;;;;;;7.90;4.67;;;;;;;;;;7327309;19;20388;-40
2024/02/22 02:40:30;;;;;;;10.07;5.63;;;;;;;;;;7349609;19;20443;-39
2024/02/22 02:43:00;;;;;;;10.37;4.50;;;;;;;;;;7327537;19;20388;-39
2024/02/22 02:45:29;;;;;;;9.20;4.93;;;;;;;;;;7347909;19;20431;-40
2024/02/22 02:47:59;;;;;;;9.23;5.00;;;;;;;;;;7327438;19;20463;-39
2024/02/22 02:50:28;;;;;;;6.73;4.00;;;;;;;;;;7349820;19;20452;-38
2024/02/22 02:52:58;;;;;;;7.70;4.43;;;;;;;;;;7326497;19;20435;-39
2024/02/22 02:55:27;;;;;;;8.80;5.27;;;;;;;;;;7346198;19;20492;-39
2024/02/22 02:58:00;;;;;;;9.70;4.80;;;;;;;;;;7327180;19;20420;-38
2024/02/22 03:00:30;;;;;;;7.33;4.53;;;;;;;;;;7349586;19;20445;-38
2024/02/22 03:03:00;;;;;;;11.93;4.13;;;;;;;;;;7324416;19;20393;-40
2024/02/22 03:05:29;;;;;;;9.67;4.67;;;;;;;;;;7348906;19;21063;-40
2024/02/22 03:07:59;;;;;;;12.50;4.90;;;;;;;;;;7326389;19;20403;-40
2024/02/22 03:10:28;;;;;;;7.77;4.20;;;;;;;;;;7346695;19;20440;-40
2024/02/22 03:13:01;;;;;;;13.80;4.70;;;;;;;;;;7327648;19;20380;-39
2024/02/22 03:15:30;;;;;;;9.20;4.13;;;;;;;;;;7348481;19;20535;-39
2024/02/22 03:18:00;;;;;;;7.63;4.03;;;;;;;;;;7325785;19;20498;-38
2024/02/22 03:20:30;;;;;;;9.10;4.80;;;;;;;;;;7348435;19;20427;-40
2024/02/22 03:22:59;;;;;;;10.50;5.27;;;;;;;;;;7326243;19;20399;-41
2024/02/22 03:25:30;;;;;;;6.87;4.37;;;;;;;;;;7347364;19;20790;-38
2024/02/22 03:28:03;;;;;;;7.47;4.40;;;;;;;;;;7325679;19;20420;-38
2024/02/22 03:30:33;;;;;;;6.37;3.93;;;;;;;;;;7347808;19;20439;-39
2024/02/22 03:33:04;;;;;;;8.73;4.30;;;;;;;;;;7326819;19;20407;-39
2024/02/22 03:35:33;;;;;;;13.53;5.10;;;;;;;;;;7346915;19;20419;-38
2024/02/22 03:38:03;;;;;;;8.47;4.73;;;;;;;;;;7326134;19;21133;-38
2024/02/22 03:40:32;;;;;;;4.70;3.27;;;;;;;;;;7348018;19;20450;-39
2024/02/22 03:43:05;;;;;;;7.13;4.67;;;;;;;;;;7326848;19;20399;-42
2024/02/22 03:45:34;;;;;;;9.17;4.67;;;;;;;;;;7346243;19;20438;-39
2024/02/22 03:48:04;;;;;;;6.00;4.30;;;;;;;;;;7325226;19;20427;-39
2024/02/22 03:50:33;;;;;;;8.70;4.87;;;;;;;;;;7346996;19;20435;-40
2024/02/22 03:53:03;;;;;;;8.40;4.30;;;;;;;;;;7325013;19;20399;-39
2024/02/22 03:55:33;;;;;;;7.20;4.63;;;;;;;;;;7345747;19;20974;-38
2024/02/22 03:58:06;;;;;;;6.40;4.27;;;;;;;;;;7324635;19;20387;-39
2024/02/22 04:00:36;;;;;;;6.80;4.30;;;;;;;;;;7346971;19;20982;-39
2024/02/22 04:03:05;;;;;;;5.20;3.90;;;;;;;;;;7326546;19;20446;-39
2024/02/22 04:05:35;;;;;;;5.67;4.13;;;;;;;;;;7345824;19;20830;-39
2024/02/22 04:08:04;;;;;;;7.60;4.53;;;;;;;;;;7325854;19;20443;-39
2024/02/22 04:10:34;;;;;;;11.13;4.80;;;;;;;;;;7346104;19;20443;-39
2024/02/22 04:13:08;;;;;;;6.20;4.50;;;;;;;;;;7323990;19;20440;-39
2024/02/22 04:15:38;;;;;;;6.53;4.50;;;;;;;;;;7331287;19;20433;-38
2024/02/22 04:18:07;;;;;;;9.47;4.53;;;;;;;;;;7351365;19;20467;-39
2024/02/22 04:20:37;;;;;;;6.70;4.70;;;;;;;;;;7342489;19;20514;-38
2024/02/22 04:23:06;;;;;;;10.10;5.23;;;;;;;;;;7351357;19;20842;-39
2024/02/22 04:25:36;;;;;;;6.97;4.43;;;;;;;;;;7352637;19;20486;-38
2024/02/22 04:28:10;;;;;;;9.40;5.10;;;;;;;;;;7332512;19;20443;-39
2024/02/22 04:30:40;;;;;;;7.33;4.70;;;;;;;;;;7330382;19;20423;-38
2024/02/22 04:33:10;;;;;;;5.83;3.97;;;;;;;;;;7351930;19;20508;-39
2024/02/22 04:35:39;;;;;;;6.00;4.37;;;;;;;;;;7326527;19;20427;-38
2024/02/22 04:38:09;;;;;;;10.93;5.70;;;;;;;;;;7349258;19;20435;-40
2024/02/22 04:40:39;;;;;;;8.60;5.20;;;;;;;;;;7330738;19;20455;-40
2024/02/22 04:43:13;;;;;;;7.97;5.20;;;;;;;;;;7352859;19;20490;-39
2024/02/22 04:45:43;;;;;;;8.23;5.20;;;;;;;;;;7328869;19;20453;-41
2024/02/22 04:48:12;;;;;;;8.47;5.23;;;;;;;;;;7352126;19;21007;-39
2024/02/22 04:50:42;;;;;;;11.63;6.53;;;;;;;;;;7329999;19;21088;-40
2024/02/22 04:53:12;;;;;;;8.77;6.00;;;;;;;;;;7351174;19;20624;-40
2024/02/22 04:55:41;;;;;;;8.03;5.80;;;;;;;;;;7328613;19;20427;-39
2024/02/22 04:58:13;;;;;;;8.63;5.70;;;;;;;;;;7351333;19;21087;-41
2024/02/22 05:00:44;;;;;;;6.00;4.60;;;;;;;;;;7329479;19;20419;-39
2024/02/22 05:03:14;;;;;;;7.63;4.70;;;;;;;;;;7351897;19;21087;-40
2024/02/22 05:05:44;;;;;;;9.33;5.63;;;;;;;;;;7323735;19;20951;-39
2024/02/22 05:08:14;;;;;;;8.93;4.90;;;;;;;;;;7350923;19;20430;-41
2024/02/22 05:10:43;;;;;;;8.50;5.43;;;;;;;;;;7329898;19;20503;-40
2024/02/22 05:13:15;;;;;;;8.23;5.00;;;;;;;;;;7349546;19;20421;-43
2024/02/22 05:15:45;;;;;;;8.70;4.73;;;;;;;;;;7325827;19;20478;-41
2024/02/22 05:18:14;;;;;;;10.50;4.93;;;;;;;;;;7349667;19;20427;-41
2024/02/22 05:20:44;;;;;;;9.30;4.80;;;;;;;;;;7327594;19;20455;-41
2024/02/22 05:23:14;;;;;;;8.90;5.47;;;;;;;;;;7351018;19;20978;-41
2024/02/22 05:25:43;;;;;;;8.20;5.70;;;;;;;;;;7325466;19;20815;-41
2024/02/22 05:28:15;;;;;;;6.83;4.80;;;;;;;;;;7350442;19;20431;-41
2024/02/22 05:30:45;;;;;;;5.70;4.37;;;;;;;;;;7327852;19;20963;-41
2024/02/22 05:33:14;;;;;;;6.27;4.50;;;;;;;;;;7350081;19;20450;-42
2024/02/22 05:35:46;;;;;;;8.20;5.20;;;;;;;;;;7327816;19;20475;-41
2024/02/22 05:38:16;;;;;;;6.63;4.40;;;;;;;;;;7349461;19;20432;-41
2024/02/22 05:40:45;;;;;;;6.80;4.20;;;;;;;;;;7328528;19;20445;-42
2024/02/22 05:43:17;;;;;;;4.93;3.60;;;;;;;;;;7350194;19;20423;-41
2024/02/22 05:45:48;;;;;;;5.27;4.13;;;;;;;;;;7327294;19;20459;-44
2024/02/22 05:48:17;;;;;;;4.90;3.80;;;;;;;;;;7349944;19;20451;-42
2024/02/22 05:50:46;;;;;;;5.23;3.20;;;;;;;;;;7327610;19;20452;-41
2024/02/22 05:53:17;;;;;;;6.30;4.87;;;;;;;;;;7349689;19;20476;-41
2024/02/22 05:55:47;;;;;;;4.67;3.50;;;;;;;;;;7319938;19;20438;-40
2024/02/22 05:58:19;;;;;;;3.40;2.87;;;;;;;;;;7346496;19;20782;-41
2024/02/22 06:00:49;;;;;;;5.10;3.03;;;;;;;;;;7328908;19;20503;-42
2024/02/22 06:03:18;;;;;;;4.50;3.00;;;;;;;;;;7349673;19;20479;-42
2024/02/22 06:05:48;;;;;;;3.70;2.90;;;;;;;;;;7323846;19;20441;-41
2024/02/22 06:08:18;;;;;;;2.73;2.37;;;;;;;;;;7349525;19;20971;-43
2024/02/22 06:10:48;;;;;;;4.77;3.13;;;;;;;;;;7326945;19;20441;-41
2024/02/22 06:13:20;;;;;;;3.83;2.43;;;;;;;;;;7350457;19;20440;-42
2024/02/22 06:15:50;;;;;;;3.10;2.43;;;;;;;;;;7326168;19;20419;-41
2024/02/22 06:18:19;;;;;;;4.13;3.20;;;;;;;;;;7349641;19;20427;-40
2024/02/22 06:20:49;;;;;;;3.67;3.07;;;;;;;;;;7328250;19;20462;-40
2024/02/22 06:23:19;;;;;;;3.30;2.87;;;;;;;;;;7349429;19;20502;-42
2024/02/22 06:25:49;;;;;;;5.07;3.30;;;;;;;;;;7326111;19;20426;-40
2024/02/22 06:28:21;;;;;;;2.90;2.60;;;;;;;;;;7347023;19;20831;-41
2024/02/22 06:30:50;;;;;;;5.43;3.00;;;;;;;;;;7324611;19;20443;-41
2024/02/22 06:33:21;;;;;;;4.90;3.07;;;;;;;;;;7349191;19;21030;-40
2024/02/22 06:35:51;;;;;;;4.90;2.90;;;;;;;;;;7322184;19;20431;-41
2024/02/22 06:38:20;;;;;;;2.83;2.43;;;;;;;;;;7346403;19;20791;-41
2024/02/22 06:40:51;;;;;;;3.50;2.60;;;;;;;;;;7327444;19;20827;-43
2024/02/22 06:43:23;;;;;;;3.47;2.73;;;;;;;;;;7346614;19;21038;-41
2024/02/22 06:45:52;;;;;;;6.20;3.53;;;;;;;;;;7325681;19;20445;-42
2024/02/22 06:48:21;;;;;;;4.37;3.30;;;;;;;;;;7348734;19;20494;-44
2024/02/22 06:50:51;;;;;;;4.90;3.13;;;;;;;;;;7326290;19;20427;-41
2024/02/22 06:53:20;;;;;;;4.13;3.07;;;;;;;;;;7348370;19;20419;-40
2024/02/22 06:55:51;;;;;;;6.73;3.40;;;;;;;;;;7325710;19;20431;-40
2024/02/22 06:58:23;;;;;;;4.50;3.23;;;;;;;;;;7349629;19;20487;-41
2024/02/22 07:00:53;;;;;;;5.63;3.40;;;;;;;;;;7326747;19;20427;-40
2024/02/22 07:03:22;;;;;;;4.90;3.70;;;;;;;;;;7346778;19;20443;-41
2024/02/22 07:05:52;;;;;;;6.20;2.80;;;;;;;;;;7325107;19;20454;-41
2024/02/22 07:08:22;;;;;;;6.40;4.30;;;;;;;;;;7348188;19;20511;-41
2024/02/22 07:10:51;;;;;;;8.13;4.33;;;;;;;;;;7325985;19;20810;-40
2024/02/22 07:13:23;;;;;;;6.87;4.47;;;;;;;;;;7348096;19;20451;-42
2024/02/22 07:15:53;;;;;;;7.53;4.03;;;;;;;;;;7325175;19;20982;-44
2024/02/22 07:18:22;;;;;;;6.00;3.80;;;;;;;;;;7344724;19;20791;-41
2024/02/22 07:20:51;;;;;;;6.67;4.30;;;;;;;;;;7326307;19;20428;-41
2024/02/22 07:23:21;;;;;;;6.37;4.57;;;;;;;;;;7348174;19;20422;-41
2024/02/22 07:25:51;;;;;;;9.43;4.87;;;;;;;;;;7322979;19;20462;-41
2024/02/22 07:28:20;;;;;;;10.57;5.40;;;;;;;;;;7347854;19;20455;-41
2024/02/22 07:30:53;;;;;;;9.70;4.77;;;;;;;;;;7326209;19;20981;-41
2024/02/22 07:33:22;;;;;;;10.60;4.43;;;;;;;;;;7347706;19;20502;-45
2024/02/22 07:35:53;;;;;;;9.00;4.93;;;;;;;;;;7323529;19;20971;-41
2024/02/22 07:38:22;;;;;;;9.77;5.13;;;;;;;;;;7348113;19;20430;-42
2024/02/22 07:40:54;;;;;;;9.50;4.10;;;;;;;;;;7326426;19;21076;-42
2024/02/22 07:43:23;;;;;;;11.63;5.13;;;;;;;;;;7348926;19;20466;-42
2024/02/22 07:45:55;;;;;;;9.03;5.40;;;;;;;;;;7324134;19;20441;-44
2024/02/22 07:48:25;;;;;;;9.73;5.47;;;;;;;;;;7346118;19;20434;-41
2024/02/22 07:50:54;;;;;;;13.13;6.30;;;;;;;;;;7323206;19;20431;-45
2024/02/22 07:53:24;;;;;;;10.90;6.33;;;;;;;;;;7345786;19;21010;-44
2024/02/22 07:55:53;;;;;;;9.73;5.13;;;;;;;;;;7324020;19;20453;-42
2024/02/22 07:58:23;;;;;;;12.90;6.80;;;;;;;;;;7347291;19;20514;-42
2024/02/22 08:00:53;;;;;;;10.17;5.77;;;;;;;;;;7324679;19;20486;-43
2024/02/22 08:03:26;;;;;;;12.17;5.90;;;;;;;;;;7346554;19;20443;-43
2024/02/22 08:05:55;;;;;;;12.50;6.13;;;;;;;;;;7323497;19;20448;-42
2024/02/22 08:08:24;;;;;;;9.50;4.83;;;;;;;;;;7347277;19;20419;-42
2024/02/22 08:10:54;;;;;;;14.67;6.60;;;;;;;;;;7322416;19;20447;-41
2024/02/22 08:13:23;;;;;;;10.97;5.27;;;;;;;;;;7346199;19;20518;-43
2024/02/22 08:15:53;;;;;;;12.63;6.10;;;;;;;;;;7322932;19;20814;-42
2024/02/22 08:18:22;;;;;;;12.43;5.40;;;;;;;;;;7346231;19;20435;-42
2024/02/22 08:20:54;;;;;;;12.87;6.40;;;;;;;;;;7324561;19;20458;-46
2024/02/22 08:23:24;;;;;;;14.23;6.23;;;;;;;;;;7341243;19;20424;-42
2024/02/22 08:25:53;;;;;;;12.80;6.50;;;;;;;;;;7319475;19;20431;-41
2024/02/22 08:28:23;;;;;;;18.47;7.00;;;;;;;;;;7345446;19;20415;-42
2024/02/22 08:30:52;;;;;;;14.13;6.50;;;;;;;;;;7323487;19;20818;-42
2024/02/22 08:33:22;;;;;;;14.43;7.00;;;;;;;;;;7344751;19;20426;-40
2024/02/22 08:35:52;;;;;;;13.23;6.23;;;;;;;;;;7319432;19;20442;-40
2024/02/22 08:38:25;;;;;;;13.73;6.10;;;;;;;;;;7343750;19;20427;-41
2024/02/22 08:40:55;;;;;;;16.27;8.40;;;;;;;;;;7324200;19;20431;-39
2024/02/22 08:43:25;;;;;;;25.83;9.47;;;;;;;;;;7345259;19;20423;-40
2024/02/22 08:45:55;;;;;;;37.10;13.73;;;;;;;;;;7322303;19;20465;-39
2024/02/22 08:48:25;;;;;;;14.53;5.77;;;;;;;;;;7346089;19;20518;-40
2024/02/22 08:50:57;;;;;;;15.80;7.17;;;;;;;;;;7323515;19;20431;-40
2024/02/22 08:53:29;;;;;;;17.53;8.37;;;;;;;;;;7343403;19;20787;-41
2024/02/22 08:55:59;;;;;;;28.13;7.20;;;;;;;;;;7322235;19;20431;-41
2024/02/22 08:58:31;;;;;;;15.00;7.63;;;;;;;;;;7345306;19;20415;-39
2024/02/22 09:01:01;;;;;;;24.80;9.43;;;;;;;;;;7326910;19;20399;-39
2024/02/22 09:03:30;;;;;;;27.67;10.63;;;;;;;;;;7352727;19;20419;-39
2024/02/22 09:06:00;;;;;;;23.43;9.47;;;;;;;;;;7328743;19;20402;-39
2024/02/22 09:08:32;;;;;;;32.50;12.20;;;;;;;;;;7349773;19;20426;-39
2024/02/22 09:11:02;;;;;;;24.57;7.40;;;;;;;;;;7330492;19;20402;-43
2024/02/22 09:13:32;;;;;;;18.20;6.80;;;;;;;;;;7351844;19;20439;-40
2024/02/22 09:16:01;;;;;;;19.73;8.63;;;;;;;;;;7329076;19;20510;-40
2024/02/22 09:18:31;;;;;;;16.40;7.73;;;;;;;;;;7352134;19;20805;-40
2024/02/22 09:21:00;;;;;;;20.37;8.40;;;;;;;;;;7329452;19;20395;-40
2024/02/22 09:23:35;;;;;;;19.37;8.90;;;;;;;;;;7351338;19;20490;-40
2024/02/22 09:26:05;;;;;;;21.20;6.97;;;;;;;;;;7330628;19;20494;-40
2024/02/22 09:28:34;;;;;;;26.83;9.73;;;;;;;;;;7344074;19;20464;-38
2024/02/22 09:31:03;;;;;;;25.53;9.73;;;;;;;;;;7329356;19;20400;-38
2024/02/22 09:33:33;;;;;;;18.53;8.57;;;;;;;;;;7350761;19;20435;-38
2024/02/22 09:36:03;;;;;;;51.83;16.47;;;;;;;;;;7328638;19;20418;-38
2024/02/22 09:38:34;;;;;;;20.10;7.80;;;;;;;;;;7347869;19;20423;-37
2024/02/22 09:41:08;;;;;;;27.97;11.63;;;;;;;;;;7326159;19;20398;-39
2024/02/22 09:43:38;;;;;;;14.23;5.57;;;;;;;;;;7331869;19;20470;-39
2024/02/22 09:46:09;;;;;;;16.90;7.30;;;;;;;;;;7349561;19;20434;-41
2024/02/22 09:48:39;;;;;;;15.00;6.30;;;;;;;;;;7334143;19;20812;-40
2024/02/22 09:51:09;;;;;;;21.43;7.90;;;;;;;;;;7351161;19;20423;-41
2024/02/22 09:53:39;;;;;;;22.20;9.77;;;;;;;;;;7325727;19;20423;-39
2024/02/22 09:56:11;;;;;;;19.50;7.60;;;;;;;;;;7345092;19;20443;-42
2024/02/22 09:58:41;;;;;;;15.83;6.40;;;;;;;;;;7317672;19;20431;-40
2024/02/22 10:01:10;;;;;;;15.07;7.37;;;;;;;;;;7313666;19;20482;-41
2024/02/22 10:03:40;;;;;;;20.90;7.87;;;;;;;;;;7324542;19;20852;-40
2024/02/22 10:06:17;;;;;;;16.77;7.80;;;;;;;;;;7345026;19;20412;-41
2024/02/22 10:08:47;;;;;;;15.90;7.13;;;;;;;;;;7321659;19;20522;-41
2024/02/22 10:11:19;;;;;;;13.70;7.60;;;;;;;;;;7342580;19;20427;-41
2024/02/22 10:13:49;;;;;;;16.73;8.27;;;;;;;;;;7303827;19;20494;-40
2024/02/22 10:18:25;;;;;;;17.37;7.63;;;;;;;;;;7197617;19;2914886;-54
2024/02/22 10:20:55;;;;;;;14.10;6.60;;;;;;;;;;7354817;19;20253;-56
2024/02/22 10:23:24;;;;;;;13.50;7.47;;;;;;;;;;7378627;19;20419;-58
2024/02/22 10:26:03;;;;;;;21.30;8.93;;;;;;;;;;7334885;19;20542;-57
2024/02/22 10:28:33;;;;;;;13.83;6.20;;;;;;;;;;7373606;19;20959;-57
2024/02/22 10:31:06;;;;;;;14.67;6.50;;;;;;;;;;7342271;19;20395;-56
2024/02/22 10:33:39;;;;;;;12.67;6.33;;;;;;;;;;7378321;19;20419;-57
2024/02/22 10:36:10;;;;;;;12.33;5.63;;;;;;;;;;7350987;19;20418;-58
2024/02/22 10:38:40;;;;;;;12.60;5.67;;;;;;;;;;7351748;19;20418;-54
2024/02/22 10:41:11;;;;;;;8.33;4.33;;;;;;;;;;7371836;19;20406;-55
2024/02/22 10:43:41;;;;;;;10.43;5.83;;;;;;;;;;7354620;19;20406;-57
2024/02/22 10:46:12;;;;;;;11.80;5.00;;;;;;;;;;7376059;19;20490;-55
2024/02/22 10:48:47;;;;;;;12.00;5.53;;;;;;;;;;7339323;19;20426;-54
2024/02/22 10:51:18;;;;;;;11.20;5.43;;;;;;;;;;7376521;19;20433;-58
2024/02/22 10:53:51;;;;;;;10.13;5.70;;;;;;;;;;7345833;19;20425;-54
2024/02/22 10:56:23;;;;;;;9.27;4.90;;;;;;;;;;7376775;19;20410;-56
2024/02/22 10:58:54;;;;;;;11.47;5.00;;;;;;;;;;7353448;19;20434;-57
2024/02/22 11:01:24;;;;;;;11.87;6.47;;;;;;;;;;7377646;19;20405;-56
2024/02/22 11:03:56;;;;;;;12.53;6.60;;;;;;;;;;7332322;19;20490;-54
2024/02/22 11:06:28;;;;;;;18.00;7.03;;;;;;;;;;7374084;19;20413;-56
2024/02/22 11:09:01;;;;;;;17.33;5.93;;;;;;;;;;7351092;19;20426;-55
2024/02/22 11:11:32;;;;;;;11.63;6.00;;;;;;;;;;7374109;19;20422;-57
2024/02/22 11:14:02;;;;;;;14.90;6.93;;;;;;;;;;7351792;19;20951;-54
2024/02/22 11:16:35;;;;;;;12.80;6.90;;;;;;;;;;7375346;19;20816;-50
2024/02/22 11:19:09;;;;;;;13.93;7.23;;;;;;;;;;7352109;19;20474;-54
2024/02/22 11:21:39;;;;;;;11.43;5.63;;;;;;;;;;7376975;19;20409;-52
2024/02/22 11:24:10;;;;;;;25.20;10.17;;;;;;;;;;7356216;19;20423;-52
2024/02/22 11:26:40;;;;;;;27.90;11.30;;;;;;;;;;7376232;19;20421;-49
2024/02/22 11:29:09;;;;;;;31.80;13.27;;;;;;;;;;7332300;19;20391;-50
2024/02/22 11:31:39;;;;;;;13.40;6.97;;;;;;;;;;7348066;19;20517;-50
2024/02/22 11:34:12;;;;;;;13.87;6.37;;;;;;;;;;7326687;19;20391;-50
2024/02/22 11:36:41;;;;;;;14.67;7.50;;;;;;;;;;7334590;19;20399;-53
2024/02/22 11:39:10;;;;;;;15.83;7.50;;;;;;;;;;7336278;19;20453;-52
2024/02/22 11:41:40;;;;;;;22.40;9.03;;;;;;;;;;7345314;19;20466;-52
2024/02/22 11:44:11;;;;;;;21.83;9.33;;;;;;;;;;7346774;19;20792;-51
2024/02/22 11:46:42;;;;;;;14.23;7.60;;;;;;;;;;7336357;19;20439;-53
2024/02/22 11:49:14;;;;;;;15.97;7.70;;;;;;;;;;7348882;19;21137;-52
2024/02/22 11:51:44;;;;;;;13.07;7.20;;;;;;;;;;7321691;19;20403;-52
2024/02/22 11:54:19;;;;;;;19.80;7.17;;;;;;;;;;7344205;19;21300;-53
2024/02/22 11:56:48;;;;;;;13.10;6.10;;;;;;;;;;7308769;19;20823;-54
2024/02/22 11:59:18;;;;;;;17.83;8.80;;;;;;;;;;7347483;19;20434;-54
2024/02/22 12:01:47;;;;;;;14.70;7.53;;;;;;;;;;7317353;19;20427;-55
2024/02/22 12:04:20;;;;;;;17.80;8.53;;;;;;;;;;7347545;19;20997;-52
2024/02/22 12:06:49;;;;;;;16.60;8.10;;;;;;;;;;7322998;19;20427;-52
2024/02/22 12:09:20;;;;;;;19.33;8.07;;;;;;;;;;7346019;19;20411;-55
2024/02/22 12:11:50;;;;;;;44.37;18.77;;;;;;;;;;7324861;19;20663;-51
2024/02/22 12:14:21;;;;;;;24.87;11.30;;;;;;;;;;7347199;19;20494;-52
2024/02/22 12:16:52;;;;;;;17.87;8.00;;;;;;;;;;7324505;19;20423;-54
2024/02/22 12:19:25;;;;;;;43.00;18.10;;;;;;;;;;7346987;19;20411;-50
2024/02/22 12:21:54;;;;;;;25.30;11.83;;;;;;;;;;7324630;19;20431;-54
2024/02/22 12:24:24;;;;;;;23.10;10.47;;;;;;;;;;7347165;19;20442;-53
2024/02/22 12:26:54;;;;;;;24.80;9.80;;;;;;;;;;7324240;19;20806;-53
2024/02/22 12:29:23;;;;;;;18.70;9.97;;;;;;;;;;7347651;19;20440;-55
2024/02/22 12:32:02;;;;;;;19.03;10.27;;;;;;;;;;7324327;19;20442;-55
2024/02/22 12:34:35;;;;;;;20.93;9.67;;;;;;;;;;7346851;19;20832;-55
2024/02/22 12:37:04;;;;;;;15.13;9.03;;;;;;;;;;7323861;19;20502;-54
2024/02/22 12:39:34;;;;;;;25.23;10.40;;;;;;;;;;7344696;19;20438;-51
2024/02/22 12:42:05;;;;;;;21.30;9.90;;;;;;;;;;7324149;19;20413;-52
2024/02/22 12:44:34;;;;;;;15.83;9.20;;;;;;;;;;7347489;19;20454;-50
2024/02/22 12:47:05;;;;;;;19.90;9.43;;;;;;;;;;7322894;19;20415;-54
2024/02/22 12:49:38;;;;;;;14.87;7.00;;;;;;;;;;7347837;19;20439;-53
2024/02/22 12:52:08;;;;;;;14.30;7.53;;;;;;;;;;7325768;19;20399;-55
2024/02/22 12:54:38;;;;;;;13.97;7.67;;;;;;;;;;7345582;19;20406;-51
2024/02/22 12:57:08;;;;;;;12.20;6.70;;;;;;;;;;7323209;19;20487;-51
2024/02/22 12:59:37;;;;;;;16.17;7.67;;;;;;;;;;7348898;19;20423;-54
2024/02/22 13:02:07;;;;;;;14.60;6.60;;;;;;;;;;7324767;19;20937;-52
2024/02/22 13:04:39;;;;;;;15.43;7.17;;;;;;;;;;7345549;19;20403;-50
2024/02/22 13:07:12;;;;;;;9.20;5.50;;;;;;;;;;7323345;19;20396;-51
2024/02/22 13:09:44;;;;;;;11.00;5.67;;;;;;;;;;7340591;19;20475;-51
2024/02/22 13:12:13;;;;;;;20.60;7.47;;;;;;;;;;7345593;19;20563;-53
2024/02/22 13:14:43;;;;;;;12.70;5.17;;;;;;;;;;7328412;19;21078;-53
2024/02/22 13:17:15;;;;;;;11.90;6.00;;;;;;;;;;7343672;19;20408;-56
2024/02/22 13:19:48;;;;;;;12.60;4.63;;;;;;;;;;7320692;19;20802;-55
2024/02/22 13:22:18;;;;;;;24.83;10.43;;;;;;;;;;7345249;19;20399;-52
2024/02/22 13:24:47;;;;;;;9.07;4.23;;;;;;;;;;7323582;19;20471;-50
2024/02/22 13:27:17;;;;;;;15.10;5.10;;;;;;;;;;7343046;19;20477;-51
2024/02/22 13:29:46;;;;;;;14.40;5.10;;;;;;;;;;7321950;19;20408;-55
2024/02/22 13:32:16;;;;;;;20.23;7.40;;;;;;;;;;7344236;19;20395;-52
2024/02/22 13:34:49;;;;;;;10.30;5.20;;;;;;;;;;7321916;19;20415;-54
2024/02/22 13:37:18;;;;;;;10.97;4.83;;;;;;;;;;7342945;19;20395;-51
2024/02/22 13:39:47;;;;;;;11.80;6.40;;;;;;;;;;7321559;19;20423;-55
2024/02/22 13:42:23;;;;;;;11.13;4.10;;;;;;;;;;7345065;19;20399;-52
2024/02/22 13:44:52;;;;;;;14.77;6.83;;;;;;;;;;7312668;19;20435;-52
2024/02/22 13:47:22;;;;;;;24.53;8.83;;;;;;;;;;7330928;19;20403;-54
2024/02/22 13:49:54;;;;;;;13.90;7.13;;;;;;;;;;7310386;19;20410;-55
2024/02/22 13:52:24;;;;;;;17.20;6.10;;;;;;;;;;7338440;19;20403;-54
2024/02/22 13:54:53;;;;;;;18.83;7.53;;;;;;;;;;7294305;19;20797;-54
2024/02/22 13:57:23;;;;;;;23.63;10.90;;;;;;;;;;7320407;19;20413;-52
2024/02/22 13:59:52;;;;;;;15.10;6.23;;;;;;;;;;7341962;19;20493;-55
2024/02/22 14:02:21;;;;;;;12.00;6.20;;;;;;;;;;7312829;19;20418;-53
2024/02/22 14:04:54;;;;;;;17.17;7.03;;;;;;;;;;7342669;19;20960;-54
2024/02/22 14:07:23;;;;;;;11.83;6.00;;;;;;;;;;7318950;19;20414;-54
2024/02/22 14:09:53;;;;;;;15.30;8.40;;;;;;;;;;7340800;19;20969;-54
2024/02/22 14:12:22;;;;;;;11.13;6.30;;;;;;;;;;7312130;19;20964;-51
2024/02/22 14:14:52;;;;;;;14.43;7.40;;;;;;;;;;7338645;19;20403;-52
2024/02/22 14:17:24;;;;;;;18.63;8.37;;;;;;;;;;7317541;19;20482;-55
2024/02/22 14:19:56;;;;;;;20.97;10.27;;;;;;;;;;7327466;19;20403;-54
2024/02/22 14:22:27;;;;;;;15.67;7.40;;;;;;;;;;7312142;19;20399;-50
2024/02/22 14:24:56;;;;;;;38.77;16.67;;;;;;;;;;7311389;19;20407;-52
2024/02/22 14:27:31;;;;;;;27.57;10.67;;;;;;;;;;7320769;19;20961;-53
2024/02/22 14:30:00;;;;;;;26.80;11.43;;;;;;;;;;7344392;19;20474;-52
2024/02/22 14:32:30;;;;;;;9.77;5.93;;;;;;;;;;7297778;19;20484;-52
2024/02/22 14:35:02;;;;;;;17.10;6.83;;;;;;;;;;7341670;19;20422;-55
2024/02/22 14:37:32;;;;;;;20.10;8.27;;;;;;;;;;7312649;19;20407;-53
2024/02/22 14:40:01;;;;;;;17.90;7.77;;;;;;;;;;7340000;19;20431;-52
2024/02/22 14:42:31;;;;;;;13.50;6.47;;;;;;;;;;7318960;19;21258;-51
2024/02/22 14:45:00;;;;;;;17.80;7.80;;;;;;;;;;7341000;19;20507;-54
2024/02/22 14:47:30;;;;;;;15.03;7.93;;;;;;;;;;7317766;19;20823;-53
2024/02/22 14:50:03;;;;;;;12.43;6.80;;;;;;;;;;7341801;19;20771;-53
2024/02/22 14:52:33;;;;;;;13.93;7.40;;;;;;;;;;7317610;19;20395;-51